createdAt,value
2018-12-16T00:03:34.449Z,14.90
2018-12-16T00:06:39.033Z,13.23
2018-12-16T00:09:44.127Z,11.27
2018-12-16T00:12:48.715Z,11.77
2018-12-16T00:15:53.429Z,13.00
2018-12-16T00:18:58.046Z,13.40
2018-12-16T00:22:02.678Z,13.23
2018-12-16T00:25:08.534Z,13.37
2018-12-16T00:28:13.185Z,12.50
2018-12-16T00:31:17.897Z,13.40
2018-12-16T00:34:22.719Z,13.50
2018-12-16T00:37:27.894Z,13.67
2018-12-16T00:40:32.527Z,14.00
2018-12-16T00:43:37.116Z,13.47
2018-12-16T00:46:41.722Z,12.50
2018-12-16T00:49:46.411Z,14.80
2018-12-16T00:52:51.037Z,14.17
2018-12-16T00:55:55.625Z,14.33
2018-12-16T00:59:00.124Z,14.97
2018-12-16T01:02:07.156Z,13.77
2018-12-16T01:05:12.297Z,14.90
2018-12-16T01:08:16.923Z,13.67
2018-12-16T01:11:21.461Z,13.63
2018-12-16T01:14:26.183Z,12.57
2018-12-16T01:17:30.767Z,12.77
2018-12-16T01:20:35.438Z,12.07
2018-12-16T01:23:40.003Z,12.27
2018-12-16T01:26:44.586Z,14.70
2018-12-16T01:29:49.254Z,14.07
2018-12-16T01:32:53.849Z,13.60
2018-12-16T01:35:58.825Z,12.10
2018-12-16T01:39:03.735Z,14.47
2018-12-16T01:42:08.413Z,13.87
2018-12-16T01:45:12.992Z,13.73
2018-12-16T01:48:17.565Z,13.33
2018-12-16T01:51:22.142Z,14.20
2018-12-16T01:54:26.686Z,13.27
2018-12-16T01:57:31.242Z,12.10
2018-12-16T02:00:35.855Z,12.63
2018-12-16T02:03:40.538Z,12.70
2018-12-16T02:06:45.317Z,13.93
2018-12-16T02:09:50.029Z,13.53
2018-12-16T02:12:54.628Z,13.43
2018-12-16T02:15:59.605Z,13.10
2018-12-16T02:19:04.822Z,13.33
2018-12-16T02:22:09.480Z,12.93
2018-12-16T02:25:14.141Z,11.73
2018-12-16T02:28:18.852Z,13.80
2018-12-16T02:31:23.336Z,13.03
2018-12-16T02:34:27.932Z,12.17
2018-12-16T02:37:32.891Z,13.00
2018-12-16T02:40:37.474Z,13.13
2018-12-16T02:43:42.294Z,12.30
2018-12-16T02:46:46.902Z,13.03
2018-12-16T02:49:51.567Z,12.33
2018-12-16T02:53:04.294Z,13.13
2018-12-16T02:56:03.488Z,12.57
2018-12-16T02:59:10.876Z,12.27
2018-12-16T03:02:15.499Z,12.47
2018-12-16T03:05:20.200Z,13.53
2018-12-16T03:08:24.746Z,13.07
2018-12-16T03:11:29.330Z,11.50
2018-12-16T03:14:34.861Z,11.77
2018-12-16T03:17:39.564Z,12.07
2018-12-16T03:20:44.244Z,12.97
2018-12-16T03:23:48.914Z,12.53
2018-12-16T03:26:54.608Z,12.07
2018-12-16T03:29:59.217Z,11.57
2018-12-16T03:33:04.979Z,11.50
2018-12-16T03:36:09.861Z,12.83
2018-12-16T03:39:14.454Z,12.17
2018-12-16T03:42:19.065Z,12.10
2018-12-16T03:45:23.592Z,13.23
2018-12-16T03:48:28.136Z,13.47
2018-12-16T03:51:32.645Z,13.83
2018-12-16T03:54:37.333Z,13.00
2018-12-16T03:57:41.959Z,13.47
2018-12-16T04:00:46.563Z,13.50
2018-12-16T04:03:51.257Z,13.00
2018-12-16T04:06:56.373Z,12.97
2018-12-16T04:10:00.962Z,13.17
2018-12-16T04:13:05.525Z,12.80
2018-12-16T04:16:10.140Z,11.90
2018-12-16T04:19:14.767Z,11.67
2018-12-16T04:22:19.454Z,13.27
2018-12-16T04:25:24.098Z,12.70
2018-12-16T04:28:28.948Z,13.23
2018-12-16T04:31:33.597Z,13.30
2018-12-16T04:34:38.099Z,13.13
2018-12-16T04:37:42.749Z,12.77
2018-12-16T04:40:47.380Z,13.70
2018-12-16T04:43:51.874Z,13.47
2018-12-16T04:46:56.485Z,13.53
2018-12-16T04:50:01.184Z,13.37
2018-12-16T04:53:05.731Z,13.43
2018-12-16T04:56:10.303Z,13.10
2018-12-16T04:59:14.943Z,13.10
2018-12-16T05:02:19.562Z,13.50
2018-12-16T05:05:24.138Z,13.03
2018-12-16T05:08:28.866Z,13.27
2018-12-16T05:14:47.801Z,14.27
2018-12-16T05:17:52.462Z,12.13
2018-12-16T05:20:57.153Z,13.77
2018-12-16T05:24:01.773Z,13.43
2018-12-16T05:27:06.355Z,13.13
2018-12-16T05:33:25.650Z,13.53
2018-12-16T05:36:30.284Z,14.33
2018-12-16T05:39:34.993Z,12.83
2018-12-16T05:42:39.620Z,13.93
2018-12-16T05:45:44.250Z,14.13
2018-12-16T05:48:48.910Z,14.37
2018-12-16T05:51:53.462Z,13.30
2018-12-16T05:54:58.103Z,13.27
2018-12-16T05:58:02.704Z,13.80
2018-12-16T06:01:07.584Z,13.67
2018-12-16T06:04:12.253Z,14.47
2018-12-16T06:07:17.016Z,13.77
2018-12-16T06:10:21.638Z,13.57
2018-12-16T06:13:26.298Z,13.80
2018-12-16T06:16:30.997Z,14.70
2018-12-16T06:19:35.528Z,13.87
2018-12-16T06:22:40.233Z,14.00
2018-12-16T06:25:44.853Z,15.07
2018-12-16T06:28:49.513Z,14.47
2018-12-16T06:31:55.300Z,14.90
2018-12-16T06:35:00.297Z,13.43
2018-12-16T06:38:05.784Z,14.07
2018-12-16T06:41:10.400Z,15.70
2018-12-16T06:44:15.088Z,16.93
2018-12-16T06:47:19.715Z,15.03
2018-12-16T06:50:24.253Z,14.80
2018-12-16T06:53:28.925Z,16.47
2018-12-16T06:56:33.515Z,15.60
2018-12-16T06:59:38.114Z,14.43
2018-12-16T07:02:42.912Z,13.90
2018-12-16T07:05:48.236Z,13.60
2018-12-16T07:08:52.939Z,13.10
2018-12-16T07:11:57.580Z,16.17
2018-12-16T07:15:02.395Z,15.60
2018-12-16T07:18:07.237Z,14.33
2018-12-16T07:21:11.704Z,16.03
2018-12-16T07:24:16.313Z,14.87
2018-12-16T07:27:21.010Z,14.93
2018-12-16T07:30:27.597Z,15.50
2018-12-16T07:33:32.311Z,27.73
2018-12-16T07:36:37.654Z,29.00
2018-12-16T07:39:43.919Z,21.43
2018-12-16T07:42:48.716Z,25.73
2018-12-16T07:45:53.279Z,24.30
2018-12-16T07:48:58.122Z,19.17
2018-12-16T07:52:02.969Z,22.50
2018-12-16T07:55:09.165Z,18.27
2018-12-16T07:58:13.908Z,14.67
2018-12-16T08:04:33.195Z,16.00
2018-12-16T08:07:37.904Z,18.80
2018-12-16T08:10:42.575Z,16.40
2018-12-16T08:13:47.982Z,15.70
2018-12-16T08:16:52.592Z,14.77
2018-12-16T08:19:57.338Z,15.47
2018-12-16T08:23:01.981Z,16.13
2018-12-16T08:26:07.133Z,15.87
2018-12-16T08:29:11.687Z,16.30
2018-12-16T08:32:16.398Z,16.03
2018-12-16T08:35:20.986Z,16.20
2018-12-16T08:38:25.722Z,18.90
2018-12-16T08:41:30.456Z,20.85
2018-12-16T08:44:35.007Z,20.30
2018-12-16T08:47:39.603Z,18.73
2018-12-16T08:50:44.302Z,20.70
2018-12-16T08:53:48.941Z,15.43
2018-12-16T08:56:53.624Z,16.67
2018-12-16T08:59:58.268Z,18.07
2018-12-16T09:03:03.364Z,24.13
2018-12-16T09:06:08.001Z,23.77
2018-12-16T09:09:12.918Z,24.47
2018-12-16T09:12:17.445Z,18.73
2018-12-16T09:15:22.105Z,19.20
2018-12-16T09:18:26.630Z,19.13
2018-12-16T09:21:31.316Z,28.90
2018-12-16T09:24:37.386Z,22.77
2018-12-16T09:27:42.293Z,19.30
2018-12-16T09:30:57.702Z,19.73
2018-12-16T09:33:57.315Z,21.00
2018-12-16T09:37:02.168Z,19.63
2018-12-16T09:40:07.890Z,21.47
2018-12-16T09:43:12.698Z,17.63
2018-12-16T09:46:17.414Z,18.63
2018-12-16T09:49:22.133Z,17.10
2018-12-16T09:52:26.798Z,19.17
2018-12-16T09:55:31.513Z,18.43
2018-12-16T09:58:36.108Z,17.87
2018-12-16T10:01:40.796Z,21.33
2018-12-16T10:04:45.445Z,20.67
2018-12-16T10:11:04.123Z,17.83
2018-12-16T10:14:08.817Z,19.50
2018-12-16T10:17:13.522Z,23.77
2018-12-16T10:20:18.286Z,19.63
2018-12-16T10:23:22.942Z,19.57
2018-12-16T10:26:27.705Z,20.43
2018-12-16T10:29:32.370Z,18.20
2018-12-16T10:32:36.931Z,18.43
2018-12-16T10:35:41.777Z,17.10
2018-12-16T10:38:46.451Z,19.57
2018-12-16T10:41:51.255Z,17.60
2018-12-16T10:44:55.881Z,19.20
2018-12-16T10:48:00.604Z,19.17
2018-12-16T10:51:05.331Z,25.55
2018-12-16T10:54:10.017Z,20.63
2018-12-16T10:57:14.636Z,20.33
2018-12-16T11:00:24.369Z,16.73
2018-12-16T11:03:28.911Z,18.77
2018-12-16T11:06:33.534Z,19.87
2018-12-16T11:09:38.182Z,19.23
2018-12-16T11:12:43.263Z,19.57
2018-12-16T11:15:48.649Z,18.33
2018-12-16T11:18:53.159Z,19.70
2018-12-16T11:21:57.713Z,19.70
2018-12-16T11:25:05.566Z,20.53
2018-12-16T11:28:08.785Z,20.83
2018-12-16T11:34:28.091Z,20.03
2018-12-16T11:37:32.728Z,19.73
2018-12-16T11:40:37.289Z,19.40
2018-12-16T11:43:41.860Z,20.50
2018-12-16T11:46:46.467Z,19.43
2018-12-16T11:49:50.981Z,19.93
2018-12-16T11:52:55.482Z,17.30
2018-12-16T11:56:00.577Z,17.90
2018-12-16T11:59:05.268Z,18.47
2018-12-16T12:02:09.920Z,18.13
2018-12-16T12:05:14.445Z,18.43
2018-12-16T12:08:18.971Z,17.93
2018-12-16T12:11:23.599Z,18.53
2018-12-16T12:14:28.158Z,19.47
2018-12-16T12:17:32.738Z,18.10
2018-12-16T12:20:37.289Z,20.27
2018-12-16T12:23:42.180Z,19.90
2018-12-16T12:26:46.937Z,18.70
2018-12-16T12:29:51.482Z,18.90
2018-12-16T12:32:56.113Z,19.57
2018-12-16T12:36:00.933Z,20.80
2018-12-16T12:39:07.650Z,18.93
2018-12-16T12:42:12.125Z,18.73
2018-12-16T12:45:16.799Z,19.73
2018-12-16T12:48:21.715Z,19.97
2018-12-16T12:51:26.279Z,21.10
2018-12-16T12:54:30.881Z,20.30
2018-12-16T12:57:35.553Z,20.83
2018-12-16T13:00:40.242Z,19.47
2018-12-16T13:03:44.934Z,18.50
2018-12-16T13:06:49.540Z,19.67
2018-12-16T13:09:54.259Z,24.17
2018-12-16T13:12:59.074Z,19.30
2018-12-16T13:16:03.766Z,19.33
2018-12-16T13:19:08.350Z,20.63
2018-12-16T13:22:12.948Z,21.57
2018-12-16T13:25:35.723Z,22.70
2018-12-16T13:28:40.464Z,22.67
2018-12-16T13:31:45.170Z,22.17
2018-12-16T13:34:49.843Z,22.00
2018-12-16T13:37:54.462Z,23.23
2018-12-16T13:40:59.169Z,21.53
2018-12-16T13:44:03.974Z,21.30
2018-12-16T13:47:08.689Z,21.73
2018-12-16T13:50:13.410Z,21.70
2018-12-16T13:53:17.959Z,21.87
2018-12-16T13:56:22.642Z,22.80
2018-12-16T13:59:27.185Z,25.17
2018-12-16T14:02:31.915Z,22.80
2018-12-16T14:05:36.658Z,23.27
2018-12-16T14:08:41.355Z,26.37
2018-12-16T14:11:46.084Z,25.47
2018-12-16T14:14:50.738Z,24.30
2018-12-16T14:17:55.322Z,21.30
2018-12-16T14:20:59.951Z,21.83
2018-12-16T14:24:04.677Z,22.83
2018-12-16T14:27:09.368Z,22.10
2018-12-16T14:30:14.282Z,23.83
2018-12-16T14:33:19.015Z,26.67
2018-12-16T14:36:23.614Z,21.93
2018-12-16T14:39:31.010Z,23.27
2018-12-16T14:42:35.577Z,25.83
2018-12-16T14:45:40.276Z,22.63
2018-12-16T14:48:45.044Z,19.67
2018-12-16T14:51:49.588Z,22.90
2018-12-16T14:54:54.566Z,25.23
2018-12-16T14:57:59.209Z,24.63
2018-12-16T15:01:03.894Z,25.33
2018-12-16T15:04:08.518Z,24.53
2018-12-16T15:07:13.274Z,22.23
2018-12-16T15:10:17.931Z,23.53
2018-12-16T15:13:22.882Z,23.47
2018-12-16T15:16:27.576Z,21.67
2018-12-16T15:19:32.444Z,22.57
2018-12-16T15:22:37.246Z,23.20
2018-12-16T15:25:41.895Z,22.53
2018-12-16T15:28:46.573Z,24.63
2018-12-16T15:31:51.188Z,21.63
2018-12-16T15:34:55.913Z,22.23
2018-12-16T15:38:00.731Z,23.93
2018-12-16T15:41:05.690Z,23.47
2018-12-16T15:44:10.461Z,23.67
2018-12-16T15:47:15.218Z,22.57
2018-12-16T15:50:19.790Z,24.03
2018-12-16T15:53:24.500Z,24.43
2018-12-16T15:56:29.790Z,23.90
2018-12-16T15:59:34.386Z,25.30
2018-12-16T16:02:39.165Z,23.47
2018-12-16T16:05:44.166Z,24.83
2018-12-16T16:08:49.717Z,25.17
2018-12-16T16:11:54.499Z,23.17
2018-12-16T16:14:59.202Z,24.53
2018-12-16T16:18:03.945Z,24.30
2018-12-16T16:21:08.446Z,22.77
2018-12-16T16:24:13.175Z,23.03
2018-12-16T16:27:17.934Z,23.67
2018-12-16T16:30:22.573Z,21.33
2018-12-16T16:33:27.385Z,24.53
2018-12-16T16:36:32.257Z,24.67
2018-12-16T16:39:36.763Z,25.40
2018-12-16T16:42:41.381Z,26.40
2018-12-16T16:45:46.263Z,24.77
2018-12-16T16:48:51.245Z,30.20
2018-12-16T16:51:56.353Z,29.43
2018-12-16T16:55:01.117Z,26.23
2018-12-16T16:58:05.773Z,32.30
2018-12-16T17:01:10.407Z,31.63
2018-12-16T17:04:15.023Z,26.10
2018-12-16T17:07:19.712Z,29.03
2018-12-16T17:13:44.116Z,29.23
2018-12-16T17:16:48.869Z,27.97
2018-12-16T17:19:53.694Z,27.00
2018-12-16T17:22:58.351Z,26.47
2018-12-16T17:26:03.255Z,27.13
2018-12-16T17:29:07.963Z,26.37
2018-12-16T17:32:12.579Z,28.00
2018-12-16T17:35:17.239Z,25.13
2018-12-16T17:38:21.945Z,25.13
2018-12-16T17:41:26.688Z,25.37
2018-12-16T17:44:31.489Z,25.33
2018-12-16T17:47:36.391Z,27.63
2018-12-16T17:50:41.245Z,24.93
2018-12-16T17:53:45.899Z,25.30
2018-12-16T17:56:50.663Z,25.83
2018-12-16T17:59:55.602Z,24.83
2018-12-16T18:03:00.454Z,24.93
2018-12-16T18:06:05.089Z,26.97
2018-12-16T18:09:10.920Z,25.93
2018-12-16T18:12:15.659Z,25.87
2018-12-16T18:15:20.628Z,25.37
2018-12-16T18:18:25.402Z,25.87
2018-12-16T18:21:30.241Z,25.63
2018-12-16T18:24:34.790Z,27.03
2018-12-16T18:27:39.527Z,27.43
2018-12-16T18:30:44.245Z,27.00
2018-12-16T18:33:48.876Z,28.53
2018-12-16T18:36:53.451Z,29.37
2018-12-16T18:39:58.335Z,30.23
2018-12-16T18:43:03.060Z,28.13
2018-12-16T18:46:08.076Z,26.00
2018-12-16T18:49:12.883Z,26.10
2018-12-16T18:52:17.584Z,29.27
2018-12-16T18:55:22.289Z,26.17
2018-12-16T18:58:26.863Z,27.40
2018-12-16T19:01:31.534Z,25.67
2018-12-16T19:04:36.263Z,25.93
2018-12-16T19:07:41.158Z,27.37
2018-12-16T19:10:45.811Z,28.30
2018-12-16T19:13:50.730Z,28.00
2018-12-16T19:16:55.485Z,29.23
2018-12-16T19:20:00.052Z,26.03
2018-12-16T19:23:04.713Z,27.40
2018-12-16T19:26:09.313Z,25.97
2018-12-16T19:29:13.898Z,26.50
2018-12-16T19:32:18.563Z,26.30
2018-12-16T19:35:23.299Z,32.20
2018-12-16T19:38:27.939Z,27.43
2018-12-16T19:41:32.484Z,26.10
2018-12-16T19:44:37.008Z,25.20
2018-12-16T19:47:41.629Z,26.30
2018-12-16T19:50:46.493Z,29.23
2018-12-16T19:53:51.092Z,28.40
2018-12-16T19:56:55.705Z,29.50
2018-12-16T20:00:00.387Z,26.37
2018-12-16T20:03:05.083Z,26.10
2018-12-16T20:06:15.023Z,25.40
2018-12-16T20:09:19.732Z,26.57
2018-12-16T20:12:24.313Z,28.33
2018-12-16T20:15:29.033Z,27.63
2018-12-16T20:18:33.689Z,27.40
2018-12-16T20:21:38.724Z,27.57
2018-12-16T20:24:43.310Z,28.47
2018-12-16T20:27:47.881Z,30.17
2018-12-16T20:30:53.150Z,26.57
2018-12-16T20:33:57.837Z,28.20
2018-12-16T20:37:02.499Z,27.90
2018-12-16T20:40:08.340Z,28.13
2018-12-16T20:43:12.985Z,27.50
2018-12-16T20:46:17.642Z,27.77
2018-12-16T20:49:22.313Z,26.60
2018-12-16T20:52:26.891Z,27.07
2018-12-16T20:55:31.510Z,28.90
2018-12-16T20:58:36.181Z,25.97
2018-12-16T21:01:40.829Z,26.33
2018-12-16T21:04:45.443Z,26.57
2018-12-16T21:07:50.009Z,27.57
2018-12-16T21:10:54.572Z,28.07
2018-12-16T21:14:04.497Z,28.60
2018-12-16T21:17:14.488Z,27.00
2018-12-16T21:20:19.163Z,28.43
2018-12-16T21:23:24.227Z,26.47
2018-12-16T21:26:28.894Z,27.33
2018-12-16T21:29:33.542Z,27.17
2018-12-16T21:32:38.077Z,24.50
2018-12-16T21:35:42.727Z,25.50
2018-12-16T21:38:47.208Z,26.03
2018-12-16T21:41:51.825Z,26.37
2018-12-16T21:44:56.448Z,27.90
2018-12-16T21:48:01.014Z,27.60
2018-12-16T21:51:05.797Z,27.27
2018-12-16T21:54:10.352Z,25.03
2018-12-16T21:57:14.969Z,25.10
2018-12-16T22:00:19.561Z,27.87
2018-12-16T22:03:24.170Z,28.10
2018-12-16T22:06:28.797Z,26.70
2018-12-16T22:09:33.314Z,28.77
2018-12-16T22:12:37.993Z,26.53
2018-12-16T22:15:42.579Z,24.97
2018-12-16T22:18:47.272Z,26.87
2018-12-16T22:21:51.873Z,25.30
2018-12-16T22:24:56.476Z,26.63
2018-12-16T22:28:01.114Z,25.77
2018-12-16T22:31:05.670Z,26.40
2018-12-16T22:34:10.317Z,26.70
2018-12-16T22:37:15.110Z,26.47
2018-12-16T22:40:19.883Z,26.33
2018-12-16T22:43:24.440Z,26.47
2018-12-16T22:46:29.434Z,26.80
2018-12-16T22:49:34.199Z,27.13
2018-12-16T22:52:38.862Z,26.93
2018-12-16T22:55:43.479Z,25.27
2018-12-16T22:58:54.201Z,26.23
2018-12-16T23:01:54.706Z,25.53
2018-12-16T23:04:59.294Z,25.73
2018-12-16T23:08:03.976Z,27.60
2018-12-16T23:11:08.520Z,28.53
2018-12-16T23:14:13.196Z,26.97
2018-12-16T23:17:17.791Z,25.17
2018-12-16T23:20:24.468Z,26.87
2018-12-16T23:23:29.085Z,26.37
2018-12-16T23:26:33.665Z,25.70
2018-12-16T23:29:38.163Z,25.07
2018-12-16T23:32:42.669Z,26.83
2018-12-16T23:35:47.260Z,28.17
2018-12-16T23:38:51.802Z,26.03
2018-12-16T23:41:56.337Z,28.97
2018-12-16T23:45:00.840Z,28.37
2018-12-16T23:48:05.397Z,29.40
2018-12-16T23:51:10.103Z,25.67
2018-12-16T23:54:14.616Z,27.93
2018-12-16T23:57:19.088Z,27.27
